Wetterstation Vordersexau
Wetterdaten: November 2012
Datum Temp. A. Feuchte A. Luftdruck Regen Wind Richtung Taupunkt Windchill Windben
01.11.2012 9,5 C 73 % 990,8 hPa 0,7 l/m 10,4 km/h W 4,6 C 6,6 C 5,8 km/h
02.11.2012 9,7 C 75 % 1001,0 hPa 0,7 l/m 13,6 km/h SW 5,4 C 5,5 C 7,6 km/h
03.11.2012 13,1 C 69 % 1002,4 hPa 4,3 l/m 9,2 km/h W 7,1 C 11,2 C 5,1 km/h
04.11.2012 9,7 C 81 % 1001,5 hPa 15,3 l/m 4,1 km/h SW 6,6 C 8,6 C 2,3 km/h
05.11.2012 8,3 C 81 % 1004,2 hPa 1,8 l/m 12,7 km/h W-SW 5,2 C 4,6 C 7,1 km/h
06.11.2012 7,1 C 77 % 1016,8 hPa 1,1 l/m 1,6 km/h NO 3,1 C 6,7 C 0,9 km/h
07.11.2012 6,3 C 79 % 1026,3 hPa 0,0 l/m 8,0 km/h W-SW 2,8 C 3,5 C 4,4 km/h
08.11.2012 5,1 C 81 % 1020,8 hPa 0,0 l/m 0,2 km/h NO 2,1 C 5,1 C 0,1 km/h
09.11.2012 6,5 C 78 % 1014,3 hPa 0,0 l/m 0,6 km/h SO 2,9 C 6,4 C 0,3 km/h
10.11.2012 10,2 C 81 % 1003,9 hPa 8,9 l/m 2,0 km/h SO 7,0 C 9,8 C 1,1 km/h
11.11.2012 8,9 C 71 % 1009,7 hPa 6,1 l/m 0,3 km/h SO 3,9 C 8,9 C 0,2 km/h
12.11.2012 7,0 C 75 % 1023,2 hPa 0,0 l/m 0,1 km/h NO 2,8 C 7,0 C 0,0 km/h
13.11.2012 2,7 C 78 % 1028,2 hPa 0,4 l/m 0,1 km/h NO -0,8 C 2,7 C 0,0 km/h
14.11.2012 3,8 C 75 % 1024,2 hPa 0,0 l/m 0,1 km/h S-SO -0,2 C 3,8 C 0,0 km/h
15.11.2012 3,1 C 73 % 1020,4 hPa 0,0 l/m 1,1 km/h S-SO -1,4 C 3,0 C 0,6 km/h
16.11.2012 5,0 C 79 % 1016,7 hPa 0,4 l/m 0,8 km/h SO 1,6 C 5,0 C 0,5 km/h
17.11.2012 6,8 C 82 % 1011,6 hPa 0,0 l/m 1,4 km/h S-SO 3,8 C 6,6 C 0,8 km/h
18.11.2012 7,2 C 80 % 1010,8 hPa 0,0 l/m 0,1 km/h O-NO 3,8 C 7,2 C 0,0 km/h
19.11.2012 3,6 C 74 % 1014,9 hPa 0,0 l/m 0,0 km/h NO -0,6 C 3,6 C 0,0 km/h
20.11.2012 3,7 C 76 % 1017,0 hPa 0,4 l/m 0,5 km/h SO -0,2 C 3,7 C 0,3 km/h
21.11.2012 5,1 C 81 % 1016,1 hPa 0,4 l/m 1,0 km/h NO 2,2 C 5,1 C 0,6 km/h
22.11.2012 8,3 C 81 % 1020,9 hPa 0,4 l/m 0,1 km/h O-SO 5,2 C 8,3 C 0,0 km/h
23.11.2012 6,9 C 77 % 1018,2 hPa 0,0 l/m 2,0 km/h S-SO 3,0 C 6,7 C 1,1 km/h
24.11.2012 9,5 C 82 % 1015,4 hPa 0,0 l/m 0,8 km/h SO 6,5 C 9,5 C 0,4 km/h
25.11.2012 11,1 C 76 % 1014,2 hPa 0,0 l/m 6,2 km/h SW 7,0 C 9,5 C 3,5 km/h
26.11.2012 9,5 C 81 % 1007,6 hPa 8,5 l/m 2,9 km/h SO 6,4 C 8,8 C 1,6 km/h
27.11.2012 6,3 C 82 % 1004,5 hPa 7,1 l/m 1,8 km/h SW 3,4 C 5,9 C 1,0 km/h
28.11.2012 5,6 C 77 % 998,6 hPa 8,2 l/m 0,0 km/h NO 1,8 C 5,6 C 0,0 km/h
29.11.2012 3,2 C 81 % 999,4 hPa 8,5 l/m 0,6 km/h NO 0,2 C 3,1 C 0,4 km/h
30.11.2012 1,6 C 84 % 1006,2 hPa 0,4 l/m 0,1 km/h NW -0,8 C 1,6 C 0,0 km/h
Min-Datum 30.11.12 03.11.12 01.11.12 18 Tage 01.11.12 - 30.11.12 07.11.12 01.11.12
Min-Zeit 23:19 13:19 13:19 - 00:19 - 23:19 06:19 00:19
Minimum -3,0 C 43 % 988,2 hPa - 0,0 km/h - -4,9 C -3,5 C 0,0 km/h
Max-Datum 03.11.12 21.11.12 13.11.12 04.11.12 03.11.12 - 03.11.12 18.11.12 03.11.12
Max-Zeit 13:19 12:19 09:19 01:19 13:19 - 10:19 15:19 13:19
Maximum 20,2 C 87 % 1029,7 hPa 15,3 l/m 40,2 km/h
W
- 11,7 C 16,1 C 22,3 km/h
W
Durchschnitt 6,8 C 78 % 1012,0 hPa #73,3 l/m 2,7 km/h SO 3,2 C 6,1 C 1,5 km/h

Durchschnitt Minimum Temp.3,4 C
Durchschnitt Maximum Temp.11,1 C
www.sexauwetter.de